Terminal Aerodrome Forecast
Issued by NWS

Current Version | Previous Version | Text Only | Print | Product List | Glossary On
Versions: 1 2 3 4 5 6 7 8 9 10 11 12 13 14 15 16 17 18 19 20 21 22 23 24 25 26 27 28 29 30 31 32 33
870
FTUS44 KSJT 161739
TAFSOA
TAF
KSOA 161739Z 1618/1718 26005KT P6SM SKC
     FM170900 04009KT P6SM BKN020
     FM171500 04013KT 5SM -SHRA BR BKN012=

USA.gov is the U.S. government's official web portal to all federal, state and local government web resources and services.